GVAC

Amílcar Cabral International Airport

Espargos, Cape Verde
METAR GVAC 180000Z 04010KT 9999 SCT013 BKN100 26/22 Q1016 NOSIG
Observed Flight Rules
Oct-18 @ 00:00 UTC (44 minutes ago) Visual Flight Rules
Wind Visibility Clouds
40° at 10 knots 10,000+ meters
  • Scattered at 1,300' AGL
  • Broken at 10,000' AGL
Temperatures Readings
Current 26°C / 79°F
Dewpoint 22°C / 72°F
Humidity 79%
Altimeter 30" Hg
Pressure 1016 hPa
Elevation 55
METAR GVAC 180000Z 04010KT 9999 SCT013 BKN100 26/22 Q1016 NOSIG
Observed Flight Rules
Oct-18 @ 00:00 UTC
(44 minutes ago)
VFR
Wind Visibility
40° at 10 knots 10,000+ meters
Clouds
  • Scattered at 1,300' AGL
  • Broken at 10,000' AGL
Temperature Dewpoint
26°C / 79°F 22°C / 72°F
Humidity Altimeter Pressure
79% 30" Hg 1016 hPa